Time;durP1;ratioP1;P1;durP2;ratioP2;P2;SDS_P1;SDS_P2;PMS_P1;PMS_P2;Temp;Humidity;BMP_temperature;BMP_pressure;BME280_temperature;BME280_humidity;BME280_pressure;Samples;Min_cycle;Max_cycle;Signal;HPM_P1;HPM_P2
2021/03/10 00:02:18;;;;;;;6.75;4.82;;;21.20;43.80;;;;;;5084911;28;20024;-39
2021/03/10 00:04:44;;;;;;;8.68;4.50;;;21.20;43.80;;;;;;5087472;28;20051;-39
2021/03/10 00:07:10;;;;;;;5.15;4.18;;;21.20;43.70;;;;;;5091923;28;20042;-39
2021/03/10 00:09:37;;;;;;;5.55;4.47;;;21.20;43.70;;;;;;5083585;28;20052;-39
2021/03/10 00:12:03;;;;;;;8.50;4.95;;;21.20;43.60;;;;;;5091765;28;20035;-39
2021/03/10 00:14:29;;;;;;;5.37;4.63;;;21.20;43.60;;;;;;5073689;28;20036;-39
2021/03/10 00:16:55;;;;;;;7.60;4.80;;;21.10;43.50;;;;;;5085813;28;20055;-39
2021/03/10 00:19:22;;;;;;;5.53;4.75;;;21.10;43.50;;;;;;5094165;28;20088;-39
2021/03/10 00:21:49;;;;;;;7.38;5.22;;;21.10;43.50;;;;;;5090950;28;20055;-39
2021/03/10 00:24:15;;;;;;;;;;;21.10;43.40;;;;;;5073929;28;20085;-39
2021/03/10 00:26:41;;;;;;;7.20;4.88;;;21.10;43.30;;;;;;5086425;28;19964;-39
2021/03/10 00:29:08;;;;;;;7.43;4.80;;;21.00;43.40;;;;;;5089661;28;20047;-39
2021/03/10 00:31:34;;;;;;;5.67;4.43;;;21.00;43.50;;;;;;5090897;28;20029;-39
2021/03/10 00:34:00;;;;;;;8.70;4.70;;;21.00;43.40;;;;;;5070307;28;20049;-40
2021/03/10 00:36:26;;;;;;;7.22;5.10;;;21.00;43.50;;;;;;5088946;28;20056;-39
2021/03/10 00:38:52;;;;;;;5.57;4.68;;;20.90;44.00;;;;;;5086634;28;20760;-39
2021/03/10 00:41:18;;;;;;;7.28;4.80;;;20.90;43.40;;;;;;5087810;28;20016;-39
2021/03/10 00:43:45;;;;;;;6.45;4.78;;;20.90;43.40;;;;;;5091901;28;20115;-39
2021/03/10 00:46:11;;;;;;;7.00;5.28;;;20.90;43.50;;;;;;5083439;28;20121;-39
2021/03/10 00:48:37;;;;;;;6.40;4.65;;;20.90;43.40;;;;;;5089866;28;20050;-40
2021/03/10 00:51:04;;;;;;;7.97;5.05;;;20.80;43.40;;;;;;5085774;28;20052;-39
2021/03/10 00:53:30;;;;;;;7.20;5.00;;;20.80;43.40;;;;;;5089717;28;20027;-39
2021/03/10 00:55:56;;;;;;;6.38;4.63;;;20.80;43.40;;;;;;5083742;28;20036;-40
2021/03/10 00:58:22;;;;;;;5.68;4.80;;;20.80;43.50;;;;;;5088769;28;20055;-40
2021/03/10 01:00:48;;;;;;;5.93;4.90;;;20.80;43.60;;;;;;5087715;28;20037;-40
2021/03/10 01:03:15;;;;;;;6.07;4.75;;;20.70;43.50;;;;;;5087973;28;20051;-39
2021/03/10 01:05:41;;;;;;;5.50;4.85;;;20.70;43.50;;;;;;5081752;28;20029;-41
2021/03/10 01:08:07;;;;;;;5.85;4.88;;;20.70;43.60;;;;;;5085885;28;20086;-39
2021/03/10 01:10:34;;;;;;;5.85;5.22;;;20.60;43.50;;;;;;5093989;28;20028;-39
2021/03/10 01:13:00;;;;;;;5.30;3.85;;;20.60;43.60;;;;;;5066270;28;20024;-39
2021/03/10 01:15:26;;;;;;;7.32;5.40;;;20.60;43.70;;;;;;5084303;28;20024;-40
2021/03/10 01:17:52;;;;;;;5.75;4.85;;;20.60;43.70;;;;;;5095801;28;20043;-39
2021/03/10 01:20:23;;;;;;;9.80;5.40;;;20.50;43.70;;;;;;5088556;28;20023;-39
2021/03/10 01:22:49;;;;;;;5.45;4.75;;;20.50;43.80;;;;;;5089715;28;20066;-39
2021/03/10 01:25:15;;;;;;;6.28;5.15;;;20.50;43.80;;;;;;5079274;28;20037;-39
2021/03/10 01:27:42;;;;;;;6.53;5.22;;;20.40;43.80;;;;;;5090000;28;20028;-39
2021/03/10 01:30:09;;;;;;;6.78;5.47;;;20.40;43.80;;;;;;5084829;28;20031;-39
2021/03/10 01:32:36;;;;;;;6.78;4.70;;;20.40;43.90;;;;;;5087193;28;20032;-39
2021/03/10 01:35:02;;;;;;;5.95;5.30;;;20.30;43.90;;;;;;5088822;28;20024;-39
2021/03/10 01:37:29;;;;;;;6.43;5.57;;;20.30;44.00;;;;;;5087218;28;20040;-39
2021/03/10 01:39:55;;;;;;;7.15;5.30;;;20.30;44.00;;;;;;5084684;28;20048;-39
2021/03/10 01:42:22;;;;;;;6.85;5.53;;;20.30;44.10;;;;;;5086929;28;20040;-39
2021/03/10 01:44:49;;;;;;;7.20;5.90;;;20.30;44.10;;;;;;5089212;28;20020;-40
2021/03/10 01:47:15;;;;;;;6.75;5.95;;;20.20;44.10;;;;;;5073014;28;20246;-39
2021/03/10 01:49:41;;;;;;;6.28;5.65;;;20.20;44.10;;;;;;5085951;28;20040;-40
2021/03/10 01:52:08;;;;;;;8.10;6.33;;;20.20;44.20;;;;;;5067465;28;20034;-39
2021/03/10 01:54:35;;;;;;;6.80;5.97;;;20.10;44.20;;;;;;5092976;28;20111;-39
2021/03/10 01:57:02;;;;;;;7.55;6.20;;;20.10;44.20;;;;;;5091094;28;20047;-39
2021/03/10 01:59:28;;;;;;;8.25;6.40;;;20.10;44.30;;;;;;5092303;28;20028;-39
2021/03/10 02:01:54;;;;;;;8.95;6.97;;;20.00;44.30;;;;;;5088190;28;20099;-38
2021/03/10 02:04:20;;;;;;;7.68;6.72;;;20.00;44.30;;;;;;5083868;28;20033;-39
2021/03/10 02:07:11;;;;;;;9.48;6.70;;;20.00;44.40;;;;;;5085577;28;20115;-39
2021/03/10 02:09:50;;;;;;;8.40;7.30;;;20.00;44.50;;;;;;5090018;28;20051;-39
2021/03/10 02:12:35;;;;;;;9.63;7.82;;;19.90;44.50;;;;;;5083698;28;20119;-39
2021/03/10 02:15:25;;;;;;;8.43;7.18;;;19.90;44.50;;;;;;5086736;28;20539;-39
2021/03/10 02:17:54;;;;;;;8.60;7.28;;;19.90;44.50;;;;;;5077564;28;20044;-39
2021/03/10 02:20:20;;;;;;;9.80;7.97;;;19.80;44.60;;;;;;5097497;28;20028;-39
2021/03/10 02:23:23;;;;;;;10.48;8.10;;;19.80;44.60;;;;;;5090355;28;20533;-39
2021/03/10 02:26:13;;;;;;;9.77;7.85;;;19.80;44.70;;;;;;5089047;28;20451;-39
2021/03/10 02:28:39;;;;;;;9.80;8.57;;;19.70;44.70;;;;;;5099243;28;20024;-39
2021/03/10 02:31:05;;;;;;;11.80;8.85;;;19.70;44.70;;;;;;5063406;28;20059;-39
2021/03/10 02:33:31;;;;;;;9.30;8.30;;;19.70;44.80;;;;;;5047122;28;20029;-40
2021/03/10 02:36:02;;;;;;;10.77;9.05;;;19.60;44.80;;;;;;5073547;28;20052;-39
2021/03/10 02:38:28;;;;;;;10.50;8.75;;;19.70;44.80;;;;;;5086338;28;20100;-39
2021/03/10 02:40:55;;;;;;;12.88;9.35;;;19.60;44.90;;;;;;5046770;28;20020;-39
2021/03/10 02:43:21;;;;;;;11.55;8.90;;;19.60;45.00;;;;;;5058491;28;20021;-39
2021/03/10 02:45:49;;;;;;;10.48;9.25;;;19.60;45.00;;;;;;5055142;28;20016;-39
2021/03/10 02:48:15;;;;;;;11.25;9.50;;;19.60;45.60;;;;;;5079998;28;20474;-39
2021/03/10 02:50:42;;;;;;;10.77;9.35;;;19.60;45.10;;;;;;5071374;28;20024;-39
2021/03/10 02:53:11;;;;;;;11.90;9.73;;;19.60;45.60;;;;;;5063136;28;20033;-39
2021/03/10 02:55:38;;;;;;;12.00;9.77;;;19.50;45.10;;;;;;5096803;28;20047;-39
2021/03/10 02:58:06;;;;;;;12.10;10.00;;;19.60;45.20;;;;;;5100450;28;20054;-39
2021/03/10 03:00:32;;;;;;;13.70;9.75;;;19.50;45.10;;;;;;5105124;28;20054;-39
2021/03/10 03:02:59;;;;;;;12.52;10.10;;;19.50;45.10;;;;;;5095752;28;20050;-38
2021/03/10 03:05:25;;;;;;;13.02;10.13;;;19.50;45.20;;;;;;5097221;28;20036;-39
2021/03/10 03:07:51;;;;;;;11.27;10.05;;;19.50;45.20;;;;;;5098283;28;20032;-39
2021/03/10 03:10:22;;;;;;;11.60;9.70;;;19.50;45.30;;;;;;5066365;28;20050;-39
2021/03/10 03:12:49;;;;;;;12.30;9.82;;;19.40;45.30;;;;;;5100418;28;20427;-39
2021/03/10 03:15:17;;;;;;;11.35;9.40;;;19.50;45.30;;;;;;5076351;28;20027;-39
2021/03/10 03:17:44;;;;;;;12.55;10.20;;;19.40;45.30;;;;;;5102815;28;20039;-40
2021/03/10 03:20:12;;;;;;;10.90;9.00;;;19.40;45.40;;;;;;5079831;28;20100;-38
2021/03/10 03:22:49;;;;;;;12.48;9.45;;;19.40;45.40;;;;;;5066651;28;20036;-39
2021/03/10 03:25:19;;;;;;;11.73;9.53;;;19.40;45.50;;;;;;5085884;28;20028;-38
2021/03/10 03:27:46;;;;;;;10.55;9.25;;;19.30;45.40;;;;;;5050183;28;20265;-39
2021/03/10 03:30:16;;;;;;;11.18;9.10;;;19.30;45.50;;;;;;5062657;28;20799;-39
2021/03/10 03:32:43;;;;;;;11.32;9.77;;;19.30;45.50;;;;;;5075130;28;20024;-40
2021/03/10 03:35:10;;;;;;;13.10;9.57;;;19.30;45.50;;;;;;5093180;28;20040;-39
2021/03/10 03:37:37;;;;;;;11.18;9.27;;;19.30;45.60;;;;;;5075912;28;20044;-39
2021/03/10 03:40:06;;;;;;;10.27;9.15;;;19.30;45.60;;;;;;5061543;28;20090;-39
2021/03/10 03:42:32;;;;;;;10.25;8.80;;;19.30;45.70;;;;;;5075600;28;20032;-40
2021/03/10 03:44:58;;;;;;;11.50;9.32;;;19.20;45.70;;;;;;5092613;28;20032;-39
2021/03/10 03:47:24;;;;;;;10.57;9.02;;;19.20;45.60;;;;;;5073798;28;20584;-39
2021/03/10 03:49:50;;;;;;;12.00;9.52;;;19.20;45.70;;;;;;5075798;28;20039;-38
2021/03/10 03:52:17;;;;;;;11.30;8.85;;;19.10;45.70;;;;;;5091103;28;20032;-39
2021/03/10 03:54:43;;;;;;;10.63;8.50;;;19.20;45.80;;;;;;5090489;28;20072;-39
2021/03/10 03:57:09;;;;;;;9.40;8.40;;;19.10;45.70;;;;;;5088345;28;20031;-39
2021/03/10 03:59:38;;;;;;;10.43;8.10;;;19.10;45.70;;;;;;5090873;28;20092;-38
2021/03/10 04:02:04;;;;;;;9.90;8.18;;;19.10;45.80;;;;;;5090130;28;20024;-40
2021/03/10 04:04:30;;;;;;;11.15;8.15;;;19.10;45.80;;;;;;5091173;28;20084;-39
2021/03/10 04:06:56;;;;;;;9.75;8.13;;;19.10;45.90;;;;;;5088225;28;20027;-39
2021/03/10 04:09:23;;;;;;;9.90;8.52;;;19.10;45.90;;;;;;5092263;28;20898;-39
2021/03/10 04:11:49;;;;;;;9.98;8.27;;;19.10;45.90;;;;;;5072645;28;20054;-38
2021/03/10 04:14:15;;;;;;;10.48;8.27;;;19.00;45.80;;;;;;5090695;28;20044;-38
2021/03/10 04:16:42;;;;;;;9.38;8.00;;;19.00;45.90;;;;;;5090534;28;20037;-38
2021/03/10 04:19:08;;;;;;;9.63;8.32;;;19.00;46.00;;;;;;5091729;28;20041;-38
2021/03/10 04:21:35;;;;;;;9.45;8.30;;;19.00;46.00;;;;;;5088399;28;20032;-38
2021/03/10 04:24:01;;;;;;;9.82;8.30;;;18.90;46.00;;;;;;5091866;28;20032;-38
2021/03/10 04:26:27;;;;;;;10.52;8.57;;;18.90;46.00;;;;;;5091561;28;20055;-38
2021/03/10 04:28:53;;;;;;;8.95;7.95;;;18.90;46.00;;;;;;5070770;28;20028;-38
2021/03/10 04:31:19;;;;;;;9.85;8.20;;;18.90;46.00;;;;;;5087754;28;20051;-40
2021/03/10 04:33:46;;;;;;;10.70;8.10;;;18.90;46.10;;;;;;5096694;28;20053;-38
2021/03/10 04:36:12;;;;;;;8.90;8.00;;;18.80;46.10;;;;;;5071884;28;20088;-38
2021/03/10 04:38:38;;;;;;;10.82;8.50;;;18.80;46.10;;;;;;5099787;28;20055;-39
2021/03/10 04:41:04;;;;;;;9.73;8.20;;;18.80;46.20;;;;;;5099420;28;20037;-39
2021/03/10 04:43:30;;;;;;;8.77;7.68;;;18.80;46.20;;;;;;5093057;28;20012;-39
2021/03/10 04:45:56;;;;;;;9.93;8.18;;;18.70;46.20;;;;;;5089540;28;20085;-39
2021/03/10 04:48:23;;;;;;;9.55;8.10;;;18.80;46.30;;;;;;5096357;28;20703;-39
2021/03/10 04:50:49;;;;;;;9.45;8.45;;;18.70;46.20;;;;;;5071897;28;20059;-38
2021/03/10 04:53:15;;;;;;;9.63;8.18;;;18.70;46.20;;;;;;5065157;28;20032;-38
2021/03/10 04:55:41;;;;;;;9.52;8.13;;;18.70;46.30;;;;;;5083638;28;20085;-39
2021/03/10 04:58:07;;;;;;;9.57;8.25;;;18.70;46.40;;;;;;5082480;28;20043;-39
2021/03/10 05:00:34;;;;;;;8.85;7.90;;;18.70;46.50;;;;;;5082433;28;20021;-39
2021/03/10 05:03:00;;;;;;;9.35;8.25;;;18.60;46.30;;;;;;5068933;28;20037;-38
2021/03/10 05:05:26;;;;;;;9.23;7.63;;;18.60;46.40;;;;;;5062814;28;20021;-38
2021/03/10 05:07:52;;;;;;;9.68;7.32;;;18.60;46.50;;;;;;5079465;28;20028;-38
2021/03/10 05:10:18;;;;;;;8.57;7.63;;;18.50;46.50;;;;;;5102791;28;20028;-39
2021/03/10 05:12:44;;;;;;;8.95;8.02;;;18.50;46.50;;;;;;5083446;28;20025;-39
2021/03/10 05:15:11;;;;;;;10.05;8.20;;;18.50;46.60;;;;;;5082497;28;20029;-39
2021/03/10 05:17:37;;;;;;;9.30;7.68;;;18.50;46.50;;;;;;5085813;28;20040;-38
2021/03/10 05:20:07;;;;;;;9.38;7.57;;;18.50;46.60;;;;;;5102418;28;20028;-38
2021/03/10 05:22:33;;;;;;;9.23;8.18;;;18.50;46.70;;;;;;5102823;28;20049;-38
2021/03/10 05:25:00;;;;;;;9.30;8.23;;;18.50;46.60;;;;;;5091636;28;20115;-39
2021/03/10 05:27:30;;;;;;;9.65;8.05;;;18.40;46.60;;;;;;5082512;28;20029;-38
2021/03/10 05:29:57;;;;;;;9.68;7.95;;;18.40;46.70;;;;;;5058600;28;20032;-39
2021/03/10 05:32:24;;;;;;;10.73;8.30;;;18.40;46.70;;;;;;5089974;28;20040;-38
2021/03/10 05:34:50;;;;;;;9.35;7.70;;;18.40;46.70;;;;;;5083428;28;20142;-38
2021/03/10 05:37:16;;;;;;;9.68;8.00;;;18.30;46.70;;;;;;5082215;28;20036;-39
2021/03/10 05:39:42;;;;;;;10.05;7.90;;;18.30;46.80;;;;;;5081173;28;20092;-38
2021/03/10 05:42:08;;;;;;;9.73;7.28;;;18.30;46.80;;;;;;5102212;28;20016;-39
2021/03/10 05:44:35;;;;;;;10.65;8.18;;;18.30;46.80;;;;;;5050695;28;20070;-39
2021/03/10 05:47:01;;;;;;;10.38;8.18;;;18.20;46.80;;;;;;5099481;28;20071;-39
2021/03/10 05:49:27;;;;;;;9.13;8.07;;;18.20;46.90;;;;;;5102219;28;20034;-39
2021/03/10 05:51:53;;;;;;;10.25;8.40;;;18.20;46.80;;;;;;5084122;28;20111;-39
2021/03/10 05:54:20;;;;;;;10.15;8.40;;;18.20;46.90;;;;;;5071040;28;20032;-39
2021/03/10 05:56:46;;;;;;;9.90;8.05;;;18.10;47.00;;;;;;5064120;28;20021;-39
2021/03/10 05:59:13;;;;;;;9.27;8.23;;;18.10;47.00;;;;;;5065639;28;20036;-39
2021/03/10 06:01:39;;;;;;;9.90;8.07;;;18.10;47.00;;;;;;5092361;28;20028;-39
2021/03/10 06:04:06;;;;;;;8.93;7.65;;;18.10;47.10;;;;;;5093524;28;20028;-39
2021/03/10 06:06:40;;;;;;;10.20;7.45;;;18.10;47.10;;;;;;5082022;28;20090;-39
2021/03/10 06:09:24;;;;;;;9.98;7.90;;;18.10;47.20;;;;;;5086964;28;20063;-38
2021/03/10 06:11:54;;;;;;;9.35;7.97;;;18.10;47.10;;;;;;5082973;28;20032;-39
2021/03/10 06:14:20;;;;;;;9.45;8.50;;;18.00;47.30;;;;;;5086187;28;20028;-39
2021/03/10 06:16:47;;;;;;;9.55;8.32;;;18.00;47.20;;;;;;5085788;28;20058;-38
2021/03/10 06:19:13;;;;;;;9.73;8.35;;;18.00;47.20;;;;;;5094568;28;20036;-38
2021/03/10 06:21:51;;;;;;;10.18;7.80;;;18.00;47.30;;;;;;5106418;28;20870;-39
2021/03/10 06:24:17;;;;;;;;;;;17.90;47.20;;;;;;5090982;28;20032;-39
2021/03/10 06:26:55;;;;;;;9.38;7.88;;;17.90;47.30;;;;;;5085640;28;20403;-39
2021/03/10 06:29:21;;;;;;;10.57;8.32;;;17.90;47.50;;;;;;5079492;28;20024;-38
2021/03/10 06:31:47;;;;;;;10.27;8.30;;;17.90;47.50;;;;;;5098224;28;20096;-39
2021/03/10 06:34:15;;;;;;;9.00;7.75;;;17.90;47.50;;;;;;5086294;28;20063;-39
2021/03/10 06:36:48;;;;;;;9.75;7.63;;;17.80;47.40;;;;;;5087774;28;20036;-39
2021/03/10 06:39:31;;;;;;;10.30;8.30;;;17.80;47.60;;;;;;5077768;28;20552;-38
2021/03/10 06:41:58;;;;;;;10.02;7.75;;;17.80;47.60;;;;;;5065303;28;20029;-39
2021/03/10 06:44:28;;;;;;;8.60;7.25;;;17.80;48.10;;;;;;5082681;28;20107;-39
2021/03/10 06:47:04;;;;;;;11.45;8.13;;;17.80;47.60;;;;;;5084262;28;20028;-38
2021/03/10 06:49:32;;;;;;;11.23;8.90;;;17.70;47.60;;;;;;5067551;28;20036;-39
2021/03/10 06:52:08;;;;;;;11.20;8.05;;;17.70;47.80;;;;;;5086432;28;20609;-39
2021/03/10 06:54:34;;;;;;;9.80;8.02;;;17.70;47.60;;;;;;5074817;28;20037;-38
2021/03/10 06:57:07;;;;;;;10.15;8.10;;;17.70;47.90;;;;;;5094518;28;20028;-38
2021/03/10 06:59:46;;;;;;;9.70;7.85;;;17.70;47.70;;;;;;5092954;28;20811;-38
2021/03/10 07:02:20;;;;;;;9.82;8.25;;;17.70;47.80;;;;;;5091992;28;20032;-38
2021/03/10 07:04:56;;;;;;;8.82;7.75;;;17.70;47.90;;;;;;5085298;28;20099;-39
2021/03/10 07:07:26;;;;;;;9.02;7.35;;;17.60;47.70;;;;;;5104790;28;20036;-40
2021/03/10 07:09:52;;;;;;;10.10;8.05;;;17.60;47.90;;;;;;5097691;28;20074;-38
2021/03/10 07:12:20;;;;;;;9.85;8.40;;;17.60;47.90;;;;;;5099183;28;20091;-38
2021/03/10 07:14:48;;;;;;;9.18;7.18;;;17.60;47.80;;;;;;5084188;28;20039;-38
2021/03/10 07:17:16;;;;;;;9.43;8.18;;;17.50;47.90;;;;;;5084739;28;20056;-38
2021/03/10 07:19:42;;;;;;;9.40;7.85;;;17.50;48.00;;;;;;5097861;28;20103;-39
2021/03/10 07:22:18;;;;;;;8.98;7.63;;;17.50;48.00;;;;;;5105326;28;20020;-38
2021/03/10 07:25:03;;;;;;;9.77;8.10;;;17.50;48.00;;;;;;5098896;28;20036;-38
2021/03/10 07:27:40;;;;;;;8.60;7.40;;;17.50;48.00;;;;;;5092766;28;20027;-38
2021/03/10 07:30:07;;;;;;;9.38;8.00;;;17.50;48.10;;;;;;5105144;28;20024;-38
2021/03/10 07:32:33;;;;;;;9.95;7.75;;;17.40;48.00;;;;;;5095654;28;20054;-38
2021/03/10 07:35:07;;;;;;;9.00;8.00;;;17.40;48.00;;;;;;5086641;28;20028;-39
2021/03/10 07:37:33;;;;;;;9.68;7.65;;;17.40;48.20;;;;;;5097203;28;20635;-38
2021/03/10 07:40:07;;;;;;;12.30;8.18;;;17.40;48.20;;;;;;5069304;28;20039;-38
2021/03/10 07:42:33;;;;;;;8.65;7.57;;;17.40;48.10;;;;;;5084877;28;20632;-39
2021/03/10 07:44:59;;;;;;;9.18;7.88;;;17.30;48.10;;;;;;5066636;28;20033;-39
2021/03/10 07:47:25;;;;;;;9.80;7.72;;;17.30;48.20;;;;;;5067202;28;20025;-38
2021/03/10 07:50:01;;;;;;;9.63;7.50;;;17.30;48.20;;;;;;5084412;28;20025;-38
2021/03/10 07:52:29;;;;;;;8.88;7.80;;;17.20;48.20;;;;;;5082843;28;20090;-38
2021/03/10 07:54:58;;;;;;;;;;;17.20;48.20;;;;;;5082783;28;20067;-38
2021/03/10 07:57:24;;;;;;;9.93;8.07;;;17.20;48.20;;;;;;5104135;28;19918;-38
2021/03/10 08:00:04;;;;;;;9.45;7.90;;;17.20;48.30;;;;;;5102308;28;20020;-38
2021/03/10 08:02:41;;;;;;;9.00;7.57;;;17.10;48.40;;;;;;5090798;28;20066;-39
2021/03/10 08:05:27;;;;;;;9.18;7.57;;;17.10;48.40;;;;;;5089129;28;20820;-39
2021/03/10 08:08:14;;;;;;;8.93;7.93;;;17.10;48.50;;;;;;5103656;28;20476;-39
2021/03/10 08:10:41;;;;;;;8.82;7.35;;;17.10;48.40;;;;;;5091297;28;20044;-39
2021/03/10 08:13:20;;;;;;;10.33;8.30;;;17.10;48.40;;;;;;5099650;28;20028;-39
2021/03/10 08:15:47;;;;;;;8.60;7.68;;;17.10;48.50;;;;;;5086066;28;20062;-39
2021/03/10 08:18:18;;;;;;;9.23;7.60;;;17.00;48.30;;;;;;5085585;28;20774;-39
2021/03/10 08:20:44;;;;;;;9.63;7.40;;;17.00;48.40;;;;;;5084890;28;20028;-39
2021/03/10 08:23:11;;;;;;;8.95;7.35;;;17.00;48.40;;;;;;5049614;28;20024;-39
2021/03/10 08:25:37;;;;;;;9.52;7.85;;;17.00;48.40;;;;;;5099133;28;20036;-38
2021/03/10 08:28:10;;;;;;;10.43;8.02;;;17.00;48.50;;;;;;5081731;28;20037;-39
2021/03/10 08:30:37;;;;;;;8.68;7.45;;;17.00;49.00;;;;;;5083740;28;20092;-39
2021/03/10 08:33:04;;;;;;;9.38;7.57;;;16.90;48.40;;;;;;5072988;28;20021;-39
2021/03/10 08:35:31;;;;;;;10.48;8.25;;;16.90;48.50;;;;;;5076454;28;20032;-39
2021/03/10 08:37:58;;;;;;;9.32;7.47;;;16.90;48.50;;;;;;5085734;28;20039;-39
2021/03/10 08:40:25;;;;;;;;;;;16.90;48.60;;;;;;5083640;28;20031;-39
2021/03/10 08:42:52;;;;;;;9.38;7.65;;;16.90;48.60;;;;;;5085846;28;19908;-39
2021/03/10 08:45:22;;;;;;;9.05;7.53;;;16.80;48.60;;;;;;5089429;28;20035;-38
2021/03/10 08:48:15;;;;;;;10.40;8.00;;;16.80;48.70;;;;;;5084945;28;20032;-39
2021/03/10 08:50:45;;;;;;;10.80;7.53;;;16.80;48.80;;;;;;5079072;28;20040;-39
2021/03/10 08:53:13;;;;;;;9.52;7.85;;;16.80;48.60;;;;;;5083327;28;20025;-39
2021/03/10 08:55:40;;;;;;;8.30;7.28;;;16.80;48.70;;;;;;5065828;28;20055;-39
2021/03/10 08:58:11;;;;;;;9.57;7.50;;;16.70;48.70;;;;;;5082916;28;20066;-39
2021/03/10 09:00:37;;;;;;;9.40;7.38;;;16.70;48.80;;;;;;5103680;28;20036;-39
2021/03/10 09:03:17;;;;;;;9.48;7.55;;;16.70;48.70;;;;;;5074145;28;20074;-38
2021/03/10 09:05:44;;;;;;;9.43;7.90;;;16.70;48.70;;;;;;5082825;28;20024;-39
2021/03/10 09:08:11;;;;;;;8.88;7.00;;;16.70;48.80;;;;;;5081426;28;20028;-39
2021/03/10 09:10:38;;;;;;;8.85;7.55;;;16.70;48.90;;;;;;5076439;28;20032;-39
2021/03/10 09:13:04;;;;;;;7.27;5.47;;;16.70;48.90;;;;;;5098877;28;20028;-39
2021/03/10 09:15:31;;;;;;;11.45;7.75;;;16.60;48.80;;;;;;5081284;28;20027;-38
2021/03/10 09:18:04;;;;;;;8.40;7.45;;;16.60;48.90;;;;;;5100487;28;20036;-39
2021/03/10 09:20:38;;;;;;;9.18;7.40;;;16.60;48.90;;;;;;5076177;28;20032;-39
2021/03/10 09:23:04;;;;;;;8.75;7.32;;;16.60;49.00;;;;;;5082458;28;20035;-39
2021/03/10 09:25:31;;;;;;;10.15;7.85;;;16.60;49.00;;;;;;5081235;28;20021;-39
2021/03/10 09:28:01;;;;;;;11.00;8.15;;;16.60;49.00;;;;;;5094052;28;20024;-38
2021/03/10 09:30:29;;;;;;;8.85;7.25;;;16.60;48.90;;;;;;5094864;28;20055;-38
2021/03/10 09:32:55;;;;;;;7.95;7.15;;;16.50;49.10;;;;;;5089744;28;20030;-39
2021/03/10 09:35:24;;;;;;;9.40;7.57;;;16.50;49.10;;;;;;5102857;28;20051;-39
2021/03/10 09:37:54;;;;;;;9.85;7.28;;;16.50;49.10;;;;;;5079452;28;20058;-38
2021/03/10 09:40:22;;;;;;;9.20;8.07;;;16.50;49.00;;;;;;5093310;28;20028;-38
2021/03/10 09:43:02;;;;;;;8.90;7.53;;;16.50;49.10;;;;;;5089016;28;20564;-38
2021/03/10 09:45:30;;;;;;;9.20;7.20;;;16.40;49.10;;;;;;5093843;28;20078;-39
2021/03/10 09:47:56;;;;;;;10.15;7.82;;;16.40;49.10;;;;;;5099024;28;20113;-38
2021/03/10 09:50:36;;;;;;;9.50;7.03;;;16.40;49.20;;;;;;5094609;28;20020;-39
2021/03/10 09:53:32;;;;;;;9.43;7.45;;;16.40;49.20;;;;;;5087336;28;20468;-38
2021/03/10 09:56:09;;;;;;;9.90;7.70;;;16.40;49.10;;;;;;5077627;28;20032;-39
2021/03/10 09:58:46;;;;;;;9.52;7.80;;;16.40;49.20;;;;;;5092815;28;20045;-39
2021/03/10 10:01:12;;;;;;;8.60;7.55;;;16.30;49.20;;;;;;5066346;28;20039;-39
2021/03/10 10:03:38;;;;;;;9.27;7.72;;;16.30;49.20;;;;;;5098550;28;20040;-39
2021/03/10 10:06:06;;;;;;;9.82;7.80;;;16.30;49.30;;;;;;5100097;28;20024;-39
2021/03/10 10:08:34;;;;;;;9.98;7.53;;;16.30;49.30;;;;;;5096669;28;20040;-38
2021/03/10 10:11:03;;;;;;;9.70;7.72;;;16.30;49.40;;;;;;5090558;28;20082;-39
2021/03/10 10:13:30;;;;;;;9.52;7.15;;;16.20;49.20;;;;;;5101819;28;20514;-39
2021/03/10 10:15:56;;;;;;;10.13;7.90;;;16.20;49.30;;;;;;5086062;28;20028;-38
2021/03/10 10:18:23;;;;;;;9.55;7.55;;;16.20;49.40;;;;;;5099431;28;20044;-38
2021/03/10 10:20:49;;;;;;;8.82;7.57;;;16.20;49.30;;;;;;5100308;28;20101;-39
2021/03/10 10:23:15;;;;;;;9.23;7.65;;;16.20;49.40;;;;;;5087213;28;20082;-39
2021/03/10 10:25:42;;;;;;;9.63;8.02;;;16.20;49.30;;;;;;5086040;28;20096;-38
2021/03/10 10:28:08;;;;;;;10.88;8.10;;;16.20;49.30;;;;;;5096456;28;20020;-39
2021/03/10 10:30:34;;;;;;;10.27;7.47;;;16.10;49.40;;;;;;5091000;28;20020;-40
2021/03/10 10:33:00;;;;;;;9.38;7.38;;;16.10;49.30;;;;;;5097448;28;20028;-39
2021/03/10 10:35:26;;;;;;;9.15;7.70;;;16.10;49.40;;;;;;5093486;28;20032;-39
2021/03/10 10:37:52;;;;;;;9.38;7.82;;;16.10;49.40;;;;;;5083146;28;20122;-39
2021/03/10 10:40:20;;;;;;;9.55;7.32;;;16.10;49.60;;;;;;5088897;28;20473;-39
2021/03/10 10:42:47;;;;;;;9.10;7.95;;;16.10;49.50;;;;;;5091019;28;20047;-39
2021/03/10 10:45:13;;;;;;;10.23;7.93;;;16.10;49.50;;;;;;5095399;28;20036;-43
2021/03/10 10:47:40;;;;;;;9.00;7.07;;;16.00;49.50;;;;;;5100169;28;20692;-38
2021/03/10 10:50:07;;;;;;;9.00;7.30;;;16.00;49.50;;;;;;5083038;28;20060;-38
2021/03/10 10:52:36;;;;;;;8.10;7.07;;;16.10;49.50;;;;;;5095264;28;20035;-38
2021/03/10 10:55:07;;;;;;;9.32;7.05;;;16.00;49.50;;;;;;5088909;28;20059;-38
2021/03/10 10:57:34;;;;;;;10.25;8.27;;;16.00;49.50;;;;;;5098639;28;20039;-38
2021/03/10 11:00:00;;;;;;;10.73;8.38;;;16.00;49.50;;;;;;5090184;28;20056;-39
2021/03/10 11:02:26;;;;;;;8.93;7.43;;;16.00;49.50;;;;;;5099066;28;20405;-38
2021/03/10 11:04:52;;;;;;;9.65;7.28;;;15.90;49.50;;;;;;5104096;28;20047;-38
2021/03/10 11:07:18;;;;;;;9.10;7.53;;;15.90;49.70;;;;;;5104533;28;20028;-38
2021/03/10 11:09:44;;;;;;;9.85;8.10;;;15.90;49.60;;;;;;5098616;28;20048;-38
2021/03/10 11:12:12;;;;;;;10.07;7.88;;;15.90;49.60;;;;;;5091274;28;20016;-39
2021/03/10 11:14:41;;;;;;;9.63;8.00;;;15.90;49.60;;;;;;5104196;28;20036;-39
2021/03/10 11:17:07;;;;;;;10.05;8.02;;;15.90;49.70;;;;;;5105126;28;20024;-38
2021/03/10 11:19:34;;;;;;;9.10;7.35;;;15.90;49.70;;;;;;5089212;28;20562;-39
2021/03/10 11:22:02;;;;;;;9.57;7.65;;;15.80;49.60;;;;;;5099741;28;20028;-39
2021/03/10 11:24:28;;;;;;;8.20;7.35;;;15.80;49.70;;;;;;5096745;28;20039;-38
2021/03/10 11:26:54;;;;;;;9.70;7.60;;;15.80;49.60;;;;;;5086122;28;20037;-38
2021/03/10 11:29:20;;;;;;;10.43;8.00;;;15.80;49.70;;;;;;5100594;28;20023;-38
2021/03/10 11:31:47;;;;;;;9.27;7.35;;;15.70;49.70;;;;;;5089746;28;20035;-39
2021/03/10 11:34:13;;;;;;;9.25;7.70;;;15.70;49.70;;;;;;5102345;28;20055;-38
2021/03/10 11:36:39;;;;;;;8.10;7.28;;;15.70;49.80;;;;;;5091841;28;20032;-38
2021/03/10 11:39:06;;;;;;;8.95;6.93;;;15.70;49.70;;;;;;5086508;28;20040;-38
2021/03/10 11:41:34;;;;;;;9.52;7.75;;;15.80;49.80;;;;;;5090388;28;20028;-38
2021/03/10 11:44:02;;;;;;;10.27;7.90;;;15.70;49.80;;;;;;5100070;28;20020;-38
2021/03/10 11:46:28;;;;;;;;;;;15.70;49.80;;;;;;5090444;28;20080;-38
2021/03/10 11:48:54;;;;;;;10.60;7.85;;;15.70;49.80;;;;;;5096564;28;19990;-36
2021/03/10 11:51:20;;;;;;;9.43;7.18;;;15.70;49.90;;;;;;5089766;28;20104;-38
2021/03/10 11:53:46;;;;;;;9.20;7.15;;;15.60;49.90;;;;;;5101138;28;20036;-39
2021/03/10 11:56:13;;;;;;;9.43;7.45;;;15.60;49.90;;;;;;5090869;28;20020;-38
2021/03/10 11:58:39;;;;;;;9.02;7.25;;;15.60;49.90;;;;;;5104007;28;20059;-38
2021/03/10 12:01:06;;;;;;;9.80;7.70;;;15.60;50.00;;;;;;5092041;28;20074;-38
2021/03/10 12:03:34;;;;;;;9.23;7.40;;;15.60;50.00;;;;;;5102018;28;20280;-38
2021/03/10 12:06:01;;;;;;;11.02;7.63;;;15.50;49.90;;;;;;5099680;28;20107;-38
2021/03/10 12:08:27;;;;;;;9.68;7.80;;;15.60;50.00;;;;;;5091962;28;20045;-39
2021/03/10 12:10:53;;;;;;;10.95;7.78;;;15.50;50.00;;;;;;5094727;28;20032;-39
2021/03/10 12:13:19;;;;;;;10.52;8.23;;;15.50;50.00;;;;;;5104470;28;20611;-38
2021/03/10 12:15:45;;;;;;;10.07;7.55;;;15.50;50.00;;;;;;5090344;28;20103;-38
2021/03/10 12:18:12;;;;;;;10.25;8.02;;;15.50;50.00;;;;;;5102407;28;20042;-38
2021/03/10 12:20:38;;;;;;;8.95;7.40;;;15.50;50.00;;;;;;5104210;28;20058;-38
2021/03/10 12:23:04;;;;;;;9.10;7.18;;;15.50;50.00;;;;;;5104391;28;20110;-38
2021/03/10 12:25:30;;;;;;;9.27;7.57;;;15.50;50.00;;;;;;5103662;28;20024;-38
2021/03/10 12:27:57;;;;;;;9.85;7.57;;;15.40;50.00;;;;;;5087760;28;20020;-38
2021/03/10 12:30:23;;;;;;;9.27;7.50;;;15.40;50.00;;;;;;5103639;28;20024;-44
2021/03/10 12:32:50;;;;;;;9.45;7.65;;;15.40;50.10;;;;;;5098942;28;20028;-39
2021/03/10 12:35:16;;;;;;;8.32;7.18;;;15.40;50.00;;;;;;5086773;28;20895;-38
2021/03/10 12:37:42;;;;;;;10.15;7.80;;;15.40;50.10;;;;;;5089414;28;20043;-38
2021/03/10 12:40:09;;;;;;;9.77;7.43;;;15.40;50.10;;;;;;5089039;28;20024;-38
2021/03/10 12:42:36;;;;;;;11.17;8.33;;;15.30;50.30;;;;;;5095454;28;20103;-38
2021/03/10 12:45:03;;;;;;;9.25;7.15;;;15.40;50.20;;;;;;5096708;28;20280;-38
2021/03/10 12:47:30;;;;;;;;;;;15.30;50.30;;;;;;5087460;28;20024;-39
2021/03/10 12:49:57;;;;;;;9.70;7.53;;;15.40;50.20;;;;;;5099506;28;20023;-38
2021/03/10 12:52:24;;;;;;;8.88;7.43;;;15.30;50.30;;;;;;5091324;28;20024;-38